Time;durP1;ratioP1;P1;durP2;ratioP2;P2;SDS_P1;SDS_P2;PMS_P1;PMS_P2;Temp;Humidity;BMP_temperature;BMP_pressure;BME280_temperature;BME280_humidity;BME280_pressure;Samples;Min_cycle;Max_cycle;Signal;HPM_P1;HPM_P2
2022/03/29 00:01:09;;;;;;;11.18;9.30;;;;;;;6.86;74.84;95694.19;4973749;28;24446;-72
2022/03/29 00:03:36;;;;;;;14.20;9.35;;;;;;;6.92;74.52;95690.47;4972722;28;24487;-72
2022/03/29 00:06:02;;;;;;;14.70;9.15;;;;;;;6.98;74.99;95692.75;4973114;28;24461;-72
2022/03/29 00:08:29;;;;;;;12.73;8.27;;;;;;;7.03;75.05;95690.78;4973611;28;24510;-72
2022/03/29 00:10:56;;;;;;;15.40;10.40;;;;;;;7.10;74.23;95689.56;4973422;28;24436;-72
2022/03/29 00:13:24;;;;;;;14.57;10.55;;;;;;;6.90;75.02;95689.72;4973644;28;24457;-72
2022/03/29 00:15:51;;;;;;;15.38;10.95;;;;;;;6.79;75.64;95677.38;4973017;28;24433;-72
2022/03/29 00:18:18;;;;;;;10.43;9.33;;;;;;;6.76;75.59;95675.78;4973321;28;24869;-73
2022/03/29 00:20:44;;;;;;;11.77;9.77;;;;;;;6.74;75.31;95671.63;4973004;28;24440;-72
2022/03/29 00:23:10;;;;;;;17.45;11.13;;;;;;;6.73;74.77;95670.78;4973268;28;24449;-72
2022/03/29 00:25:37;;;;;;;16.05;11.07;;;;;;;6.71;75.65;95664.03;4973398;28;26263;-72
2022/03/29 00:28:04;;;;;;;14.98;10.15;;;;;;;6.70;75.47;95662.38;4973402;28;24566;-74
2022/03/29 00:30:32;;;;;;;16.70;10.88;;;;;;;6.69;75.55;95661.56;4973356;28;24432;-72
2022/03/29 00:32:58;;;;;;;16.87;10.03;;;;;;;6.64;75.81;95652.41;4972891;28;25010;-71
2022/03/29 00:35:25;;;;;;;12.68;9.35;;;;;;;6.65;75.97;95657.47;4973041;28;24448;-72
2022/03/29 00:37:53;;;;;;;12.68;9.73;;;;;;;6.67;76.38;95652.22;4973066;28;24428;-74
2022/03/29 00:40:20;;;;;;;12.38;9.43;;;;;;;6.68;76.57;95653.91;4972959;28;24557;-72
2022/03/29 00:42:47;;;;;;;12.00;10.25;;;;;;;6.66;76.88;95645.44;4973458;28;24542;-72
2022/03/29 00:45:13;;;;;;;12.45;10.00;;;;;;;6.64;77.41;95645.50;4972949;28;24819;-71
2022/03/29 00:47:41;;;;;;;14.30;10.60;;;;;;;6.62;77.70;95643.91;4973112;28;24470;-72
2022/03/29 00:50:09;;;;;;;12.32;9.07;;;;;;;6.59;77.35;95628.63;4973108;28;24430;-72
2022/03/29 00:52:39;;;;;;;14.50;10.07;;;;;;;6.47;79.01;95630.88;4972981;28;24505;-71
2022/03/29 00:55:08;;;;;;;17.40;10.23;;;;;;;6.39;80.23;95630.44;4973499;28;24429;-72
2022/03/29 00:57:35;;;;;;;13.90;10.40;;;;;;;6.39;79.67;95622.72;4972747;28;24453;-72
2022/03/29 01:00:02;;;;;;;13.18;9.70;;;;;;;6.33;79.79;95615.28;4972694;28;25053;-72
2022/03/29 01:02:28;;;;;;;13.45;10.05;;;;;;;6.30;80.14;95612.88;4972938;28;24443;-73
2022/03/29 01:04:56;;;;;;;14.02;9.80;;;;;;;6.34;79.84;95603.25;4972885;28;24432;-72
2022/03/29 01:07:24;;;;;;;11.98;10.25;;;;;;;6.18;81.05;95606.56;4972944;28;24457;-74
2022/03/29 01:09:50;;;;;;;19.48;14.32;;;;;;;6.18;80.72;95609.16;4975632;28;24445;-71
2022/03/29 01:12:17;;;;;;;19.90;12.27;;;;;;;6.25;79.84;95599.41;4976527;28;24437;-74
2022/03/29 01:14:43;;;;;;;17.30;11.90;;;;;;;6.36;78.78;95598.88;4973481;28;24441;-72
2022/03/29 01:19:58;;;;;;;13.65;10.77;;;;;;;6.35;78.52;95595.50;4976840;28;24417;-72
2022/03/29 01:22:26;;;;;;;11.63;9.77;;;;;;;6.32;78.92;95587.09;4979752;28;24425;-72
2022/03/29 01:24:53;;;;;;;19.42;10.48;;;;;;;6.30;78.99;95582.84;4978739;28;24448;-72
2022/03/29 01:27:21;;;;;;;13.23;10.40;;;;;;;6.26;79.54;95580.47;4975470;28;24453;-71
2022/03/29 01:29:50;;;;;;;13.70;11.07;;;;;;;6.19;80.20;95579.13;4975321;28;24550;-72
2022/03/29 01:32:17;;;;;;;17.70;11.05;;;;;;;6.20;80.86;95578.22;4975557;28;24445;-72
2022/03/29 01:34:44;;;;;;;13.70;10.45;;;;;;;6.26;80.21;95575.34;4974978;28;25009;-72
2022/03/29 01:37:11;;;;;;;16.10;11.10;;;;;;;6.32;79.83;95576.78;4975189;28;24449;-71
2022/03/29 01:39:39;;;;;;;15.05;10.73;;;;;;;6.37;79.35;95569.69;4975056;28;25073;-72
2022/03/29 01:42:07;;;;;;;16.08;10.75;;;;;;;6.43;78.21;95566.81;4975758;28;24440;-73
2022/03/29 01:44:33;;;;;;;14.50;10.32;;;;;;;6.37;79.28;95562.78;4975526;28;24492;-71
2022/03/29 01:47:00;;;;;;;12.25;9.82;;;;;;;6.28;79.70;95558.94;4975450;28;24504;-72
2022/03/29 01:49:26;;;;;;;11.85;9.07;;;;;;;6.28;80.00;95561.50;4975585;28;24441;-72
2022/03/29 01:51:53;;;;;;;15.98;10.02;;;;;;;6.37;79.94;95556.81;4975340;28;24488;-72
2022/03/29 01:54:20;;;;;;;12.25;10.27;;;;;;;6.29;81.63;95554.63;4976021;28;24428;-72
2022/03/29 01:56:47;;;;;;;10.75;8.82;;;;;;;6.30;81.60;95546.00;4975746;28;24448;-73
2022/03/29 01:59:14;;;;;;;11.80;9.55;;;;;;;6.30;81.63;95548.56;4975598;28;24442;-72
2022/03/29 02:01:41;;;;;;;14.02;9.90;;;;;;;6.39;80.66;95542.97;4975221;28;24445;-72
2022/03/29 02:04:08;;;;;;;12.02;9.90;;;;;;;6.29;81.01;95544.34;4975723;28;24421;-72
2022/03/29 02:06:35;;;;;;;13.23;9.13;;;;;;;6.23;81.79;95544.63;4975000;28;24998;-73
2022/03/29 02:09:02;;;;;;;11.20;9.07;;;;;;;6.21;81.72;95541.31;4975579;28;24428;-71
2022/03/29 02:11:29;;;;;;;11.77;9.15;;;;;;;6.21;81.80;95538.75;4975364;28;24449;-72
2022/03/29 02:13:57;;;;;;;11.85;9.07;;;;;;;6.20;81.43;95529.38;4975467;28;24496;-71
2022/03/29 02:16:23;;;;;;;17.95;9.25;;;;;;;6.14;81.60;95522.78;4975437;28;24448;-71
2022/03/29 02:18:50;;;;;;;14.40;10.05;;;;;;;6.09;82.21;95527.31;4975240;28;24417;-71
2022/03/29 02:21:16;;;;;;;12.60;9.20;;;;;;;6.09;82.58;95529.91;4974894;28;24425;-71
2022/03/29 02:23:43;;;;;;;11.73;9.15;;;;;;;6.12;82.37;95524.59;4975715;28;24438;-72
2022/03/29 02:26:10;;;;;;;12.80;8.80;;;;;;;6.15;82.13;95516.72;4974872;28;24449;-71
2022/03/29 02:28:36;;;;;;;13.63;9.10;;;;;;;6.18;82.27;95511.44;4974615;28;24827;-71
2022/03/29 02:31:05;;;;;;;10.27;8.63;;;;;;;6.20;82.21;95513.94;4974933;28;24426;-71
2022/03/29 02:33:31;;;;;;;18.92;9.70;;;;;;;6.23;81.92;95512.06;4975121;28;24485;-72
2022/03/29 02:35:58;;;;;;;11.05;9.00;;;;;;;6.14;81.50;95511.66;4975119;28;24436;-71
2022/03/29 02:38:24;;;;;;;10.85;9.38;;;;;;;5.97;83.05;95507.34;4975690;28;24437;-72
2022/03/29 02:40:51;;;;;;;11.05;9.05;;;;;;;5.90;82.50;95504.22;4975037;28;24583;-71
2022/03/29 02:43:17;;;;;;;12.77;9.18;;;;;;;5.81;83.70;95507.22;4974959;28;24402;-74
2022/03/29 02:45:44;;;;;;;14.07;9.60;;;;;;;5.77;84.48;95505.72;4955605;29;24454;-72
2022/03/29 02:48:12;;;;;;;12.60;9.70;;;;;;;5.77;84.49;95508.28;4955853;29;24454;-72
2022/03/29 02:50:38;;;;;;;13.77;10.35;;;;;;;5.77;84.59;95496.25;4955615;29;24462;-72
2022/03/29 02:53:05;;;;;;;13.10;9.45;;;;;;;5.83;83.93;95495.97;4968930;28;24441;-72
2022/03/29 02:55:33;;;;;;;12.20;9.48;;;;;;;5.84;83.61;95494.22;4975504;28;24441;-71
2022/03/29 02:57:59;;;;;;;12.60;9.85;;;;;;;5.78;84.19;95497.09;4974888;28;24442;-72
2022/03/29 03:00:26;;;;;;;15.25;10.40;;;;;;;5.65;85.45;95486.59;4974826;28;24420;-74
2022/03/29 03:02:55;;;;;;;11.75;10.15;;;;;;;5.71;85.08;95490.56;4974761;28;24434;-72
2022/03/29 03:05:24;;;;;;;12.53;10.00;;;;;;;5.75;85.05;95487.81;4974810;28;24514;-72
2022/03/29 03:07:50;;;;;;;13.30;10.13;;;;;;;5.81;84.72;95481.53;4974688;28;24453;-73
2022/03/29 03:10:17;;;;;;;10.98;9.15;;;;;;;5.86;84.64;95483.88;4974519;28;24484;-72
2022/03/29 03:12:45;;;;;;;13.70;9.47;;;;;;;5.88;84.46;95476.94;4974692;28;24426;-71
2022/03/29 03:15:14;;;;;;;12.30;10.32;;;;;;;5.91;84.42;95482.75;4974435;28;24800;-71
2022/03/29 03:17:40;;;;;;;15.02;10.05;;;;;;;5.91;84.29;95469.06;4974047;28;24425;-73
2022/03/29 03:20:08;;;;;;;13.88;10.00;;;;;;;5.91;84.14;95469.91;4972613;28;24796;-75
2022/03/29 03:22:37;;;;;;;13.70;10.00;;;;;;;5.97;84.22;95471.34;4972914;28;24541;-74
2022/03/29 03:25:05;;;;;;;11.93;9.73;;;;;;;5.92;83.64;95461.31;4972971;28;24437;-75
2022/03/29 03:27:33;;;;;;;12.23;10.80;;;;;;;5.81;83.57;95464.38;4972825;28;24462;-75
2022/03/29 03:29:59;;;;;;;12.23;9.52;;;;;;;5.71;85.06;95457.19;4972036;28;24445;-75
2022/03/29 03:32:26;;;;;;;10.57;9.48;;;;;;;5.65;84.43;95460.91;4972649;28;24492;-75
2022/03/29 03:34:52;;;;;;;14.73;10.02;;;;;;;5.62;84.94;95453.31;4972622;28;24433;-75
2022/03/29 03:37:18;;;;;;;13.32;10.38;;;;;;;5.69;83.68;95452.13;4972551;28;24469;-75
2022/03/29 03:39:46;;;;;;;10.68;9.57;;;;;;;5.54;84.74;95451.13;4972250;28;24465;-72
2022/03/29 03:42:13;;;;;;;19.05;9.93;;;;;;;5.50;85.62;95448.78;4956973;28;24436;-75
2022/03/29 03:44:40;;;;;;;11.50;9.82;;;;;;;5.55;84.48;95445.06;4972475;28;24449;-73
2022/03/29 03:47:08;;;;;;;12.07;9.35;;;;;;;5.39;86.37;95441.59;4972304;28;24473;-75
2022/03/29 03:49:35;;;;;;;13.55;9.82;;;;;;;5.35;86.62;95442.66;4972298;28;24515;-75
2022/03/29 03:52:01;;;;;;;11.70;10.00;;;;;;;5.37;86.39;95430.53;4972061;28;24438;-75
2022/03/29 03:54:27;;;;;;;13.13;9.80;;;;;;;5.33;87.08;95434.16;4972108;28;24488;-73
2022/03/29 03:56:55;;;;;;;16.15;9.88;;;;;;;5.30;86.97;95429.19;4972086;28;24843;-74
2022/03/29 03:59:22;;;;;;;13.63;10.02;;;;;;;5.27;87.62;95429.34;4972337;28;24445;-73
2022/03/29 04:01:48;;;;;;;10.40;9.30;;;;;;;5.23;89.35;95430.41;4960381;28;24796;-74
2022/03/29 04:04:15;;;;;;;10.15;9.07;;;;;;;5.26;89.35;95422.53;4972030;28;26114;-74
2022/03/29 04:06:41;;;;;;;14.13;9.68;;;;;;;5.32;88.66;95423.06;4972099;28;24446;-74
2022/03/29 04:09:07;;;;;;;14.25;9.20;;;;;;;5.36;87.30;95420.38;4971978;28;24434;-74
2022/03/29 04:11:34;;;;;;;15.07;10.20;;;;;;;5.26;88.70;95415.66;4971876;28;24437;-73
2022/03/29 04:14:02;;;;;;;10.52;9.13;;;;;;;5.10;89.98;95412.97;4972285;28;24550;-74
2022/03/29 04:16:28;;;;;;;12.27;9.13;;;;;;;5.15;90.76;95414.50;4966403;28;25123;-75
2022/03/29 04:18:55;;;;;;;16.83;8.63;;;;;;;5.29;89.88;95419.81;4966632;28;24448;-74
2022/03/29 04:21:21;;;;;;;11.23;9.05;;;;;;;5.26;89.68;95412.25;4971920;28;24429;-75
2022/03/29 04:23:48;;;;;;;13.55;9.55;;;;;;;5.26;90.56;95401.97;4972129;28;24433;-76
2022/03/29 04:26:14;;;;;;;11.77;8.70;;;;;;;5.28;89.97;95403.59;4982243;28;24440;-74
2022/03/29 04:28:41;;;;;;;12.65;9.50;;;;;;;5.31;90.22;95405.19;4986470;28;24445;-76
2022/03/29 04:31:10;;;;;;;9.87;8.87;;;;;;;5.33;90.14;95406.75;4958706;28;24556;-76
2022/03/29 04:33:37;;;;;;;9.18;8.25;;;;;;;5.31;90.14;95400.88;4990991;28;24471;-76
2022/03/29 04:36:04;;;;;;;9.98;8.38;;;;;;;5.32;89.12;95407.66;4990627;28;24433;-76
2022/03/29 04:38:31;;;;;;;12.43;8.68;;;;;;;5.29;89.46;95394.13;4991265;28;24420;-75
2022/03/29 04:40:57;;;;;;;11.23;8.85;;;;;;;5.27;89.22;95398.53;4990357;28;24462;-75
2022/03/29 04:43:24;;;;;;;14.18;8.48;;;;;;;5.27;89.25;95394.22;4991659;28;24788;-75
2022/03/29 04:45:50;;;;;;;11.20;8.67;;;;;;;5.22;89.47;95396.16;4991305;28;25033;-75
2022/03/29 04:48:18;;;;;;;11.47;8.67;;;;;;;5.24;89.30;95398.69;4991466;28;24858;-75
2022/03/29 04:50:44;;;;;;;10.95;8.95;;;;;;;5.14;89.21;95402.56;4956092;28;25023;-75
2022/03/29 04:53:11;;;;;;;24.65;9.38;;;;;;;5.15;90.59;95399.91;4959619;29;24434;-76
2022/03/29 04:55:37;;;;;;;9.65;8.63;;;;;;;5.21;90.32;95396.25;4959197;29;24777;-75
2022/03/29 04:58:04;;;;;;;11.43;8.95;;;;;;;5.18;90.28;95397.22;4959766;28;24804;-76
2022/03/29 05:00:31;;;;;;;10.95;8.85;;;;;;;5.02;89.11;95388.59;4958822;28;24785;-75
2022/03/29 05:02:57;;;;;;;15.40;9.75;;;;;;;4.91;90.43;95391.66;4958963;28;25223;-75
2022/03/29 05:05:25;;;;;;;13.05;10.68;;;;;;;4.95;90.28;95387.22;4959079;28;24497;-73
2022/03/29 05:07:51;;;;;;;13.07;9.60;;;;;;;4.81;91.28;95380.16;4958947;28;24533;-73
2022/03/29 05:10:18;;;;;;;13.77;10.15;;;;;;;4.75;91.34;95376.16;4959430;28;24433;-75
2022/03/29 05:12:46;;;;;;;16.83;10.35;;;;;;;4.67;93.22;95383.34;4958746;28;24511;-75
2022/03/29 05:15:14;;;;;;;13.02;9.55;;;;;;;4.70;93.54;95384.94;4959119;28;24418;-75
2022/03/29 05:17:42;;;;;;;23.43;10.87;;;;;;;4.73;93.95;95377.94;4958910;28;24430;-75
2022/03/29 05:20:10;;;;;;;14.30;9.38;;;;;;;4.85;93.74;95376.53;4958783;29;24469;-73
2022/03/29 05:22:43;;;;;;;13.57;9.77;;;;;;;4.92;93.36;95375.34;4958594;29;24488;-75
2022/03/29 05:25:10;;;;;;;17.57;9.90;;;;;;;4.99;93.20;95381.03;4967827;28;25063;-75
2022/03/29 05:27:36;;;;;;;14.27;9.68;;;;;;;4.99;92.11;95381.84;4978580;28;24461;-75
2022/03/29 05:30:03;;;;;;;15.02;10.20;;;;;;;4.74;94.94;95384.72;4979912;28;24492;-75
2022/03/29 05:32:30;;;;;;;17.27;10.00;;;;;;;4.61;96.35;95384.47;4979275;28;24406;-76
2022/03/29 05:34:56;;;;;;;11.52;9.52;;;;;;;4.65;97.37;95381.75;4977757;28;24440;-76
2022/03/29 05:37:23;;;;;;;14.63;9.63;;;;;;;4.76;96.53;95380.38;4977963;28;24426;-74
2022/03/29 05:39:50;;;;;;;11.80;9.67;;;;;;;4.60;96.46;95382.81;4977722;28;24516;-76
2022/03/29 05:42:17;;;;;;;11.98;9.32;;;;;;;4.53;98.11;95370.34;4977780;28;24437;-76
2022/03/29 05:44:44;;;;;;;10.93;8.90;;;;;;;4.80;95.46;95371.63;4977173;28;24445;-75
2022/03/29 05:49:57;;;;;;;12.07;8.95;;;;;;;4.97;95.32;95375.97;4977556;28;24985;-75
2022/03/29 05:52:24;;;;;;;12.70;9.32;;;;;;;5.00;94.52;95378.38;4977690;28;24437;-76
2022/03/29 05:54:51;;;;;;;13.30;10.48;;;;;;;4.92;96.46;95377.91;4977681;28;24496;-75
2022/03/29 05:57:19;;;;;;;18.02;9.68;;;;;;;5.06;95.82;95377.28;4977181;28;24835;-76
2022/03/29 05:59:46;;;;;;;10.68;8.45;;;;;;;5.18;95.41;95383.56;4977456;28;24465;-75
2022/03/29 06:02:12;;;;;;;14.32;9.55;;;;;;;5.26;94.34;95384.84;4974261;28;24461;-75
2022/03/29 06:04:39;;;;;;;13.77;11.00;;;;;;;5.25;92.95;95392.63;4974201;28;24963;-75
2022/03/29 06:07:07;;;;;;;13.45;10.82;;;;;;;5.38;93.72;95398.00;4974061;28;24524;-75
2022/03/29 06:09:34;;;;;;;10.88;9.50;;;;;;;5.53;93.12;95394.69;4974635;28;24434;-75
2022/03/29 06:12:05;;;;;;;11.05;9.30;;;;;;;5.59;93.32;95389.25;4974532;28;24422;-77
2022/03/29 06:14:32;;;;;;;11.87;9.83;;;;;;;5.64;93.07;95399.31;4974671;28;24983;-76
2022/03/29 06:17:00;;;;;;;11.65;9.68;;;;;;;5.68;92.86;95388.81;4974992;28;24449;-76
2022/03/29 06:19:26;;;;;;;12.18;9.80;;;;;;;5.56;91.60;95397.09;4971549;28;24434;-74
2022/03/29 06:21:53;;;;;;;12.67;9.50;;;;;;;5.28;93.41;95395.06;4973969;28;24436;-75
2022/03/29 06:24:19;;;;;;;17.03;11.90;;;;;;;5.33;94.77;95393.09;4974422;28;24547;-75
2022/03/29 06:26:46;;;;;;;14.68;9.80;;;;;;;5.40;93.70;95393.63;4972987;28;24436;-74
2022/03/29 06:29:14;;;;;;;13.52;9.57;;;;;;;5.45;92.67;95397.66;4973182;28;24456;-75
2022/03/29 06:31:40;;;;;;;13.93;9.88;;;;;;;5.30;93.17;95396.66;4973073;28;24429;-73
2022/03/29 06:34:07;;;;;;;15.75;9.70;;;;;;;5.41;93.37;95403.81;4973929;28;24437;-75
2022/03/29 06:36:33;;;;;;;12.05;9.55;;;;;;;5.43;93.66;95401.19;4973514;28;24642;-74
2022/03/29 06:39:00;;;;;;;15.32;9.63;;;;;;;5.59;92.98;95395.22;4973636;28;24418;-74
2022/03/29 06:41:28;;;;;;;10.95;9.65;;;;;;;5.73;93.12;95397.09;4972834;28;24564;-74
2022/03/29 06:43:54;;;;;;;10.02;8.90;;;;;;;5.86;92.57;95399.06;4973654;28;24425;-73
2022/03/29 06:46:22;;;;;;;10.95;9.18;;;;;;;5.96;91.75;95402.88;4973219;28;24496;-74
2022/03/29 06:48:48;;;;;;;12.95;9.13;;;;;;;6.03;90.65;95402.47;4973155;28;24856;-73
2022/03/29 06:51:16;;;;;;;13.23;9.80;;;;;;;5.95;90.43;95396.91;4972796;28;24433;-74
2022/03/29 06:53:42;;;;;;;15.45;9.52;;;;;;;5.99;90.61;95395.81;4973725;28;24488;-75
2022/03/29 06:56:09;;;;;;;14.73;10.00;;;;;;;6.09;95.66;95385.91;4973421;28;24991;-73
2022/03/29 06:58:36;;;;;;;14.18;10.75;;;;;;;6.37;94.28;95384.47;4973438;28;24939;-76
2022/03/29 07:01:04;;;;;;;13.55;10.25;;;;;;;6.12;95.06;95395.19;4973314;28;24975;-72
2022/03/29 07:03:33;;;;;;;12.70;10.00;;;;;;;6.02;93.70;95389.72;4973716;28;24469;-74
2022/03/29 07:05:59;;;;;;;17.08;10.55;;;;;;;6.15;94.17;95389.91;4973005;28;24516;-73
2022/03/29 07:08:26;;;;;;;14.57;11.05;;;;;;;6.23;93.99;95393.75;4973578;28;24445;-75
2022/03/29 07:13:37;;;;;;;14.30;10.93;;;;;;;6.32;95.30;95389.88;4972985;28;24428;-73
2022/03/29 07:16:05;;;;;;;13.73;9.82;;;;;;;6.39;94.52;95383.50;4973026;28;24434;-74
2022/03/29 07:18:33;;;;;;;16.17;10.95;;;;;;;6.53;94.35;95391.31;4972826;28;25014;-74
2022/03/29 07:21:00;;;;;;;12.52;10.57;;;;;;;6.62;93.88;95389.16;4972873;28;24428;-76
2022/03/29 07:23:26;;;;;;;16.08;10.32;;;;;;;6.72;93.48;95380.88;4972691;28;24425;-74
2022/03/29 07:25:53;;;;;;;12.10;10.13;;;;;;;6.87;93.44;95379.22;4973147;28;24428;-73
2022/03/29 07:28:20;;;;;;;12.32;10.52;;;;;;;6.97;91.38;95376.94;4972883;28;24442;-73
2022/03/29 07:30:47;;;;;;;11.73;9.70;;;;;;;6.96;86.97;95376.13;4972960;28;24914;-73
2022/03/29 07:33:14;;;;;;;14.05;10.00;;;;;;;6.86;85.10;95379.28;4972907;28;24451;-74
2022/03/29 07:35:42;;;;;;;12.05;10.25;;;;;;;6.86;85.43;95377.56;4972566;28;24540;-73
2022/03/29 07:38:09;;;;;;;15.07;10.40;;;;;;;6.82;85.34;95373.47;4972885;28;24425;-74
2022/03/29 07:40:37;;;;;;;14.95;10.30;;;;;;;6.97;85.53;95382.97;4971987;28;24981;-73
2022/03/29 07:43:05;;;;;;;13.67;9.90;;;;;;;7.20;84.07;95383.44;4972597;28;24460;-74
2022/03/29 07:45:32;;;;;;;21.88;10.60;;;;;;;7.34;83.19;95382.63;4972281;28;24457;-74
2022/03/29 07:47:59;;;;;;;12.80;10.50;;;;;;;7.35;83.01;95382.56;4972449;28;24434;-74
2022/03/29 07:50:26;;;;;;;18.52;10.70;;;;;;;7.45;82.12;95388.03;4971881;28;20791;-74
2022/03/29 07:52:57;;;;;;;15.67;11.10;;;;;;;7.51;82.12;95385.94;4972548;28;24468;-74
2022/03/29 07:55:24;;;;;;;19.00;10.60;;;;;;;7.74;82.20;95387.19;4972203;28;24528;-74
2022/03/29 07:57:50;;;;;;;13.30;10.73;;;;;;;7.83;82.77;95385.03;4971654;28;25026;-73
2022/03/29 08:00:32;;;;;;;15.57;11.38;;;;;;;7.75;82.18;95391.44;4972205;28;24784;-74
2022/03/29 08:02:59;;;;;;;15.20;10.98;;;;;;;7.90;82.16;95382.00;4972180;28;24428;-73
2022/03/29 08:05:27;;;;;;;16.27;10.48;;;;;;;8.00;82.59;95377.09;4972284;28;24481;-74
2022/03/29 08:07:57;;;;;;;15.70;10.57;;;;;;;8.11;80.71;95369.56;4973236;28;20843;-75
2022/03/29 08:10:24;;;;;;;13.85;10.20;;;;;;;8.38;79.51;95371.44;4972163;28;20766;-73
2022/03/29 08:12:50;;;;;;;14.25;9.98;;;;;;;8.53;77.99;95361.94;4971655;28;24970;-73
2022/03/29 08:15:17;;;;;;;11.20;8.38;;;;;;;8.67;76.67;95374.84;4972100;28;24840;-73
2022/03/29 08:17:43;;;;;;;12.10;9.55;;;;;;;8.81;75.89;95368.81;4971971;28;24433;-73
2022/03/29 08:20:11;;;;;;;14.68;9.80;;;;;;;8.92;75.31;95369.81;4971842;28;24450;-74
2022/03/29 08:22:41;;;;;;;14.70;9.18;;;;;;;9.11;74.89;95369.47;4972179;28;20793;-74
2022/03/29 08:25:09;;;;;;;14.48;8.80;;;;;;;9.33;74.08;95384.44;4971442;28;20784;-73
2022/03/29 08:27:35;;;;;;;16.83;9.20;;;;;;;9.53;74.12;95375.44;4972021;28;20755;-73
2022/03/29 08:30:02;;;;;;;15.50;9.40;;;;;;;9.93;80.97;95373.59;4971062;28;24449;-74
2022/03/29 08:32:28;;;;;;;16.20;10.07;;;;;;;10.17;78.24;95365.16;4971962;28;24437;-74
2022/03/29 08:34:55;;;;;;;10.63;9.53;;;;;;;10.17;76.28;95365.16;4971970;28;24843;-73
2022/03/29 08:37:21;;;;;;;10.85;9.38;;;;;;;10.27;76.35;95365.38;4971850;28;24433;-74
2022/03/29 08:39:48;;;;;;;16.33;10.05;;;;;;;10.38;75.49;95358.56;4971553;28;20794;-73
2022/03/29 08:42:16;;;;;;;15.77;10.35;;;;;;;10.56;76.59;95363.38;4971681;28;24824;-74
2022/03/29 08:44:43;;;;;;;15.43;10.73;;;;;;;10.65;74.53;95361.00;4971621;28;20784;-74
2022/03/29 08:47:11;;;;;;;14.73;9.35;;;;;;;10.62;73.42;95368.16;4971131;28;24472;-73
2022/03/29 08:49:38;;;;;;;14.75;10.40;;;;;;;10.70;75.58;95358.06;4971422;28;24520;-75
2022/03/29 08:52:06;;;;;;;15.30;9.88;;;;;;;10.74;73.51;95349.16;4971603;28;25030;-74
2022/03/29 08:54:33;;;;;;;13.40;9.93;;;;;;;10.84;73.21;95351.94;4971619;28;24421;-74
2022/03/29 08:57:00;;;;;;;18.35;10.20;;;;;;;11.01;71.66;95353.31;4971257;28;24520;-74
2022/03/29 08:59:28;;;;;;;18.05;9.40;;;;;;;11.04;72.39;95345.31;4971393;28;24428;-73
2022/03/29 09:01:56;;;;;;;15.10;10.20;;;;;;;11.02;69.07;95361.00;4971697;28;24495;-73
2022/03/29 09:04:25;;;;;;;15.50;10.35;;;;;;;11.03;68.89;95359.22;4971362;28;24433;-74
2022/03/29 09:06:58;;;;;;;12.87;9.63;;;;;;;11.03;68.61;95354.06;4971249;28;24484;-75
2022/03/29 09:09:27;;;;;;;12.27;9.30;;;;;;;11.04;68.34;95353.09;4971146;28;20812;-74
2022/03/29 09:11:55;;;;;;;15.35;9.20;;;;;;;11.02;68.51;95352.41;4971335;28;25029;-75
2022/03/29 09:14:23;;;;;;;14.45;9.32;;;;;;;11.06;68.02;95348.66;4970898;28;24779;-75
2022/03/29 09:16:52;;;;;;;14.35;9.68;;;;;;;11.12;67.98;95349.03;4981330;23;20782;-72
2022/03/29 09:19:19;;;;;;;16.85;9.50;;;;;;;11.18;67.85;95352.94;5009870;28;24523;-72
2022/03/29 09:21:46;;;;;;;12.30;9.07;;;;;;;11.22;68.41;95350.97;5010071;28;24794;-73
2022/03/29 09:24:17;;;;;;;12.50;9.15;;;;;;;11.27;66.91;95352.31;5010233;28;24864;-70
2022/03/29 09:26:45;;;;;;;12.82;8.68;;;;;;;11.37;68.39;95353.25;5010158;28;24969;-71
2022/03/29 09:29:13;;;;;;;13.85;9.40;;;;;;;11.41;64.44;95346.09;5010254;28;24459;-70
2022/03/29 09:31:40;;;;;;;15.77;9.60;;;;;;;11.46;62.88;95344.00;5010148;28;24423;-70
2022/03/29 09:34:12;;;;;;;11.95;9.38;;;;;;;11.54;62.68;95336.50;5010184;28;24838;-70
2022/03/29 09:36:44;;;;;;;15.57;9.13;;;;;;;11.66;62.51;95331.34;5011970;28;24483;-70
2022/03/29 09:39:30;;;;;;;15.17;9.70;;;;;;;11.75;61.31;95331.47;5013721;28;24531;-71
2022/03/29 09:41:58;;;;;;;15.10;9.20;;;;;;;11.98;63.92;95318.59;5014067;28;24600;-71
2022/03/29 09:44:34;;;;;;;12.15;8.57;;;;;;;12.09;64.00;95322.03;5013981;28;24436;-72
2022/03/29 09:47:04;;;;;;;12.27;8.38;;;;;;;12.19;65.14;95319.53;5013531;28;24424;-71
2022/03/29 09:49:50;;;;;;;11.35;8.07;;;;;;;12.26;65.09;95312.94;5013288;28;24484;-72
2022/03/29 09:52:18;;;;;;;9.18;7.35;;;;;;;12.43;69.41;95310.84;5014025;28;24417;-72
2022/03/29 09:55:09;;;;;;;9.95;7.70;;;;;;;12.63;65.29;95307.50;5013599;28;24424;-72
2022/03/29 09:57:37;;;;;;;12.37;8.40;;;;;;;12.68;68.59;95301.94;5012727;28;24461;-73
2022/03/29 10:00:07;;;;;;;15.10;8.65;;;;;;;12.78;66.40;95302.88;5013352;28;24417;-72
2022/03/29 10:02:35;;;;;;;10.02;8.30;;;;;;;12.84;66.85;95292.81;5013264;28;24423;-72
2022/03/29 10:05:03;;;;;;;12.88;8.80;;;;;;;12.90;65.90;95293.25;5013055;28;24416;-72
2022/03/29 10:07:32;;;;;;;13.50;10.23;;;;;;;12.74;63.50;95294.47;5012341;28;24455;-72
2022/03/29 10:09:58;;;;;;;13.55;10.02;;;;;;;12.65;62.76;95295.22;5012119;28;25012;-71
2022/03/29 10:12:25;;;;;;;14.90;9.32;;;;;;;12.62;62.60;95284.25;5012395;28;24448;-72
2022/03/29 10:14:56;;;;;;;13.45;8.70;;;;;;;12.57;62.73;95280.25;5013303;28;24421;-72
2022/03/29 10:17:23;;;;;;;13.18;8.48;;;;;;;12.63;61.95;95280.69;5013134;28;24833;-72
2022/03/29 10:19:50;;;;;;;14.57;9.52;;;;;;;12.78;62.01;95282.91;5012937;28;24818;-71
2022/03/29 10:22:18;;;;;;;18.08;8.98;;;;;;;12.76;60.88;95286.59;5013047;28;24461;-73
2022/03/29 10:24:44;;;;;;;11.20;8.82;;;;;;;12.69;60.96;95278.44;5012883;28;24536;-72
2022/03/29 10:27:11;;;;;;;13.00;8.43;;;;;;;12.73;61.53;95271.22;5012883;28;24432;-72
2022/03/29 10:29:41;;;;;;;13.40;8.55;;;;;;;12.86;60.52;95266.69;5012358;28;24439;-72
2022/03/29 10:32:08;;;;;;;10.85;7.72;;;;;;;12.86;60.44;95266.69;5012769;28;24983;-72
2022/03/29 10:34:37;;;;;;;13.82;8.50;;;;;;;12.94;58.02;95256.53;5012610;28;25012;-72
2022/03/29 10:37:15;;;;;;;10.18;8.05;;;;;;;13.07;58.43;95259.78;5012504;28;24475;-72
2022/03/29 10:39:54;;;;;;;12.10;7.80;;;;;;;13.27;57.99;95262.56;5012274;28;24428;-72
2022/03/29 10:42:32;;;;;;;17.00;8.25;;;;;;;13.34;57.00;95258.50;5012003;28;25207;-72
2022/03/29 10:45:20;;;;;;;15.27;8.25;;;;;;;13.38;57.80;95249.50;5012037;28;24475;-73
2022/03/29 10:47:48;;;;;;;11.52;7.47;;;;;;;13.49;55.42;95251.22;5011425;28;24436;-72
2022/03/29 10:50:16;;;;;;;15.70;7.93;;;;;;;13.56;55.40;95247.16;5011314;28;24436;-72
2022/03/29 10:52:45;;;;;;;10.50;7.55;;;;;;;13.75;56.17;95239.47;5012435;28;24515;-72
2022/03/29 10:55:31;;;;;;;11.45;7.18;;;;;;;14.09;54.50;95236.66;5012277;28;24419;-73
2022/03/29 10:58:13;;;;;;;11.30;7.60;;;;;;;14.18;48.82;95229.81;5012016;28;24432;-73
2022/03/29 11:00:42;;;;;;;11.43;7.15;;;;;;;14.28;48.38;95230.69;5011921;28;24452;-72
2022/03/29 11:03:20;;;;;;;11.13;7.63;;;;;;;14.40;49.58;95219.19;5012404;28;24416;-72
2022/03/29 11:06:07;;;;;;;10.63;7.03;;;;;;;14.60;48.58;95217.47;5011976;28;24440;-72
2022/03/29 11:08:35;;;;;;;11.40;8.10;;;;;;;14.66;45.77;95209.13;5012021;28;24514;-73
2022/03/29 11:11:04;;;;;;;12.93;7.22;;;;;;;14.67;46.68;95197.75;5011427;28;24877;-72
2022/03/29 11:13:32;;;;;;;12.93;8.02;;;;;;;14.66;44.12;95196.09;5011830;28;24972;-72
2022/03/29 11:16:02;;;;;;;14.48;7.82;;;;;;;14.61;43.37;95193.09;5013563;28;24427;-72
2022/03/29 11:18:50;;;;;;;8.90;7.63;;;;;;;14.69;44.66;95188.03;5016962;28;24466;-72
2022/03/29 11:21:40;;;;;;;13.05;8.30;;;;;;;15.09;45.41;95199.28;5014543;28;24524;-72
2022/03/29 11:24:10;;;;;;;10.40;7.25;;;;;;;15.35;44.87;95187.34;5012282;28;24507;-71
2022/03/29 11:26:44;;;;;;;8.93;7.25;;;;;;;15.32;43.83;95185.00;5011807;28;24486;-73
2022/03/29 11:29:11;;;;;;;12.65;8.07;;;;;;;15.05;43.15;95187.47;5011835;28;24432;-72
2022/03/29 11:31:40;;;;;;;11.35;7.60;;;;;;;14.97;42.39;95181.16;5011296;28;24448;-71
2022/03/29 11:34:09;;;;;;;17.80;8.90;;;;;;;14.75;39.76;95181.44;5011628;28;24443;-72
2022/03/29 11:36:37;;;;;;;12.20;8.30;;;;;;;14.67;40.82;95178.69;5011575;28;24514;-71
2022/03/29 11:39:08;;;;;;;9.85;7.90;;;;;;;14.71;41.64;95175.66;5010926;28;24452;-73
2022/03/29 11:41:35;;;;;;;12.38;7.68;;;;;;;14.93;40.74;95174.56;5010675;28;24421;-72